Time;durP1;ratioP1;P1;durP2;ratioP2;P2;SDS_P1;SDS_P2;PMS_P1;PMS_P2;Temp;Humidity;BMP_temperature;BMP_pressure;BME280_temperature;BME280_humidity;BME280_pressure;Samples;Min_cycle;Max_cycle;Signal;HPM_P1;HPM_P2
2022/09/30 00:01:45;;;;;;;6.18;5.57;;;8.10;99.90;;;;;;4863003;29;20038;-83
2022/09/30 00:04:19;;;;;;;5.88;4.40;;;8.10;99.90;;;;;;4840046;29;20041;-82
2022/09/30 00:06:45;;;;;;;5.95;5.15;;;8.00;99.90;;;;;;4834470;29;20049;-82
2022/09/30 00:09:11;;;;;;;6.72;3.75;;;8.00;99.90;;;;;;4867668;29;20037;-83
2022/09/30 00:11:39;;;;;;;156.85;15.18;;;7.80;99.90;;;;;;4816410;29;20098;-82
2022/09/30 00:14:07;;;;;;;8.68;6.60;;;7.80;99.90;;;;;;4821174;29;20041;-83
2022/09/30 00:16:36;;;;;;;29.85;6.60;;;8.00;99.90;;;;;;4832933;29;20041;-83
2022/09/30 00:19:04;;;;;;;11.35;6.35;;;8.00;99.90;;;;;;4840424;29;20074;-82
2022/09/30 00:21:31;;;;;;;7.85;7.00;;;8.20;99.90;;;;;;4833313;29;20166;-82
2022/09/30 00:24:00;;;;;;;6.25;5.18;;;8.40;99.90;;;;;;4836580;29;20049;-83
2022/09/30 00:26:26;;;;;;;7.20;4.97;;;8.10;99.90;;;;;;4833053;29;20042;-82
2022/09/30 00:28:55;;;;;;;6.65;5.65;;;8.10;99.90;;;;;;4848610;29;20129;-82
2022/09/30 00:31:23;;;;;;;8.27;7.03;;;8.00;99.90;;;;;;4847198;29;20044;-83
2022/09/30 00:34:11;;;;;;;8.25;7.20;;;8.10;99.90;;;;;;4832703;29;20040;-83
2022/09/30 00:36:45;;;;;;;6.90;6.07;;;8.10;99.90;;;;;;4832071;29;20505;-82
2022/09/30 00:39:22;;;;;;;6.95;6.00;;;8.00;99.90;;;;;;4831837;29;20063;-82
2022/09/30 00:41:54;;;;;;;7.57;6.38;;;8.00;99.90;;;;;;4833958;29;20577;-82
2022/09/30 00:44:42;;;;;;;7.00;6.22;;;7.90;99.90;;;;;;4833901;29;20044;-82
2022/09/30 00:47:45;;;;;;;6.97;6.15;;;7.90;99.90;;;;;;4831629;29;20458;-82
2022/09/30 00:50:37;;;;;;;6.63;5.93;;;7.90;99.90;;;;;;4780512;29;20280;-82
2022/09/30 00:53:30;;;;;;;26.77;7.45;;;7.80;99.90;;;;;;4844108;29;20136;-83
2022/09/30 00:56:05;;;;;;;4.25;3.85;;;7.60;99.90;;;;;;4864657;29;20699;-82
2022/09/30 00:58:38;;;;;;;25.17;4.93;;;7.50;99.90;;;;;;4864589;29;20045;-82
2022/09/30 01:01:04;;;;;;;130.75;13.02;;;7.40;99.90;;;;;;4880185;29;20089;-82
2022/09/30 01:03:34;;;;;;;6.57;5.00;;;7.50;99.90;;;;;;4835851;29;20379;-82
2022/09/30 01:06:01;;;;;;;5.47;4.88;;;7.40;99.90;;;;;;4858851;29;20036;-82
2022/09/30 01:08:29;;;;;;;49.22;9.50;;;7.40;99.90;;;;;;4853338;29;20385;-82
2022/09/30 01:10:55;;;;;;;41.33;9.10;;;7.50;99.90;;;;;;4849584;29;20036;-82
2022/09/30 01:13:24;;;;;;;7.07;5.82;;;7.40;99.90;;;;;;4865719;29;20203;-82
2022/09/30 01:16:16;;;;;;;182.10;17.83;;;7.40;99.90;;;;;;4834582;29;20516;-82
2022/09/30 01:19:01;;;;;;;260.65;20.98;;;7.30;99.90;;;;;;4870606;29;20073;-82
2022/09/30 01:21:52;;;;;;;267.77;15.40;;;7.20;99.90;;;;;;4849095;29;20049;-82
2022/09/30 01:24:46;;;;;;;285.92;20.52;;;7.10;99.90;;;;;;4850081;29;20378;-82
2022/09/30 01:27:27;;;;;;;94.90;11.25;;;7.10;99.90;;;;;;4851704;29;20128;-82
2022/09/30 01:30:34;;;;;;;5.70;4.35;;;7.30;99.90;;;;;;4860222;29;20105;-82
2022/09/30 01:33:10;;;;;;;6.43;3.90;;;7.10;99.90;;;;;;4849282;29;20453;-82
2022/09/30 01:36:18;;;;;;;8.82;5.88;;;7.10;99.90;;;;;;4843136;29;20169;-82
2022/09/30 01:39:12;;;;;;;11.93;5.35;;;7.00;99.90;;;;;;4833625;29;20670;-82
2022/09/30 01:41:58;;;;;;;34.05;6.25;;;7.00;99.90;;;;;;4847268;29;20127;-82
2022/09/30 01:44:46;;;;;;;45.97;7.22;;;7.10;99.90;;;;;;4851875;29;20166;-82
2022/09/30 01:47:25;;;;;;;26.20;7.00;;;7.00;99.90;;;;;;4848098;29;20088;-82
2022/09/30 01:49:52;;;;;;;46.42;7.47;;;7.00;99.90;;;;;;4864679;29;20049;-82
2022/09/30 01:52:35;;;;;;;19.50;5.65;;;7.10;99.90;;;;;;4863618;29;20054;-82
2022/09/30 01:55:06;;;;;;;9.73;5.35;;;7.10;99.90;;;;;;4847171;29;20044;-82
2022/09/30 01:58:05;;;;;;;16.58;5.80;;;7.10;99.90;;;;;;4853670;29;20041;-82
2022/09/30 02:00:35;;;;;;;5.63;5.07;;;7.10;99.90;;;;;;4839579;29;20503;-82
2022/09/30 02:03:13;;;;;;;6.72;6.03;;;7.00;99.90;;;;;;4845525;29;20045;-82
2022/09/30 02:05:52;;;;;;;13.00;5.85;;;7.00;99.90;;;;;;4837951;29;20065;-82
2022/09/30 02:08:23;;;;;;;383.45;27.15;;;7.00;99.90;;;;;;4817262;29;20049;-82
2022/09/30 02:10:56;;;;;;;47.08;8.48;;;6.90;99.90;;;;;;4828939;29;20531;-82
2022/09/30 02:13:44;;;;;;;13.70;5.95;;;7.00;99.90;;;;;;4853108;29;20687;-82
2022/09/30 02:16:17;;;;;;;6.10;5.47;;;6.90;99.90;;;;;;4846215;29;20264;-83
2022/09/30 02:18:51;;;;;;;8.50;6.10;;;6.90;99.90;;;;;;4845125;29;20056;-82
2022/09/30 02:21:24;;;;;;;178.48;14.98;;;6.80;99.90;;;;;;4830797;29;20057;-82
2022/09/30 02:23:56;;;;;;;166.07;15.95;;;6.80;99.90;;;;;;4835371;29;20045;-82
2022/09/30 02:26:29;;;;;;;66.43;8.32;;;6.70;99.90;;;;;;4828324;29;20057;-82
2022/09/30 02:29:04;;;;;;;25.98;7.32;;;6.60;99.90;;;;;;4818094;29;20105;-82
2022/09/30 02:31:34;;;;;;;11.90;6.93;;;6.80;99.90;;;;;;4852242;29;20037;-82
2022/09/30 02:34:06;;;;;;;10.60;7.82;;;6.70;99.90;;;;;;4843875;29;20037;-82
2022/09/30 02:37:05;;;;;;;30.85;9.38;;;6.70;99.90;;;;;;4849413;29;20382;-82
2022/09/30 02:39:55;;;;;;;94.60;13.80;;;6.70;99.90;;;;;;4817733;29;20514;-82
2022/09/30 02:42:27;;;;;;;7.97;7.13;;;6.70;99.90;;;;;;4831630;29;20125;-82
2022/09/30 02:45:01;;;;;;;69.70;11.65;;;6.80;99.90;;;;;;4831872;29;20117;-82
2022/09/30 02:47:36;;;;;;;66.40;12.48;;;6.90;99.90;;;;;;4847132;29;20050;-82
2022/09/30 02:50:13;;;;;;;101.22;13.93;;;7.20;99.90;;;;;;4852770;29;20227;-82
2022/09/30 02:52:45;;;;;;;68.25;13.40;;;7.20;99.90;;;;;;4844545;29;20064;-82
2022/09/30 02:55:26;;;;;;;15.73;6.72;;;7.20;99.90;;;;;;4845466;29;20033;-82
2022/09/30 02:58:12;;;;;;;34.30;8.75;;;7.10;99.90;;;;;;4850711;29;20430;-82
2022/09/30 03:00:38;;;;;;;25.92;6.68;;;6.80;99.90;;;;;;4867508;29;20044;-82
2022/09/30 03:03:13;;;;;;;97.13;13.25;;;6.90;99.90;;;;;;4867817;29;20064;-82
2022/09/30 03:05:39;;;;;;;339.00;23.05;;;6.80;99.90;;;;;;4870936;29;20041;-82
2022/09/30 03:08:05;;;;;;;195.98;13.60;;;6.50;99.90;;;;;;4835562;29;20408;-82
2022/09/30 03:10:32;;;;;;;95.20;11.85;;;6.50;99.90;;;;;;4862054;29;20504;-82
2022/09/30 03:13:16;;;;;;;33.38;7.03;;;6.40;99.90;;;;;;4862553;29;20092;-82
2022/09/30 03:16:00;;;;;;;8.75;6.55;;;6.50;99.90;;;;;;4861764;29;20051;-82
2022/09/30 03:18:39;;;;;;;18.07;7.33;;;6.60;99.90;;;;;;4848285;29;20093;-82
2022/09/30 03:21:14;;;;;;;8.77;6.82;;;6.70;99.90;;;;;;4849130;29;20053;-82
2022/09/30 03:24:05;;;;;;;10.07;6.75;;;6.60;99.90;;;;;;4878962;29;20502;-82
2022/09/30 03:27:08;;;;;;;21.10;8.43;;;6.60;99.90;;;;;;4854632;29;20543;-82
2022/09/30 03:29:45;;;;;;;57.67;14.23;;;6.70;99.90;;;;;;4877500;29;20125;-82
2022/09/30 03:32:33;;;;;;;24.77;10.88;;;6.80;99.90;;;;;;4848222;29;20041;-82
2022/09/30 03:35:20;;;;;;;12.80;8.73;;;6.70;99.90;;;;;;4861002;29;20044;-82
2022/09/30 03:38:14;;;;;;;8.05;7.15;;;6.70;99.90;;;;;;4829885;29;20100;-82
2022/09/30 03:41:15;;;;;;;9.10;6.32;;;6.60;99.90;;;;;;4849740;29;20048;-82
2022/09/30 03:43:42;;;;;;;8.77;6.93;;;6.40;99.90;;;;;;4880933;29;20064;-82
2022/09/30 03:46:26;;;;;;;12.55;6.95;;;6.50;99.90;;;;;;4851411;29;20101;-82
2022/09/30 03:49:00;;;;;;;7.60;6.68;;;6.50;99.90;;;;;;4868413;29;20140;-82
2022/09/30 03:51:28;;;;;;;;;;;6.50;99.90;;;;;;4849986;29;20037;-82
2022/09/30 03:53:55;;;;;;;28.88;9.27;;;6.30;99.90;;;;;;4836006;29;20019;-82
2022/09/30 03:56:29;;;;;;;355.92;30.00;;;6.40;99.90;;;;;;4847574;29;20052;-82
2022/09/30 03:58:55;;;;;;;63.67;10.95;;;6.30;99.90;;;;;;4833368;29;20053;-82
2022/09/30 04:01:22;;;;;;;190.35;23.73;;;6.20;99.90;;;;;;4847165;29;20266;-82
2022/09/30 04:03:52;;;;;;;8.57;6.53;;;6.30;99.90;;;;;;4833493;29;20041;-82
2022/09/30 04:06:23;;;;;;;8.02;6.55;;;6.30;99.90;;;;;;4878930;29;20573;-82
2022/09/30 04:08:49;;;;;;;54.38;13.80;;;6.20;99.90;;;;;;4851940;29;20048;-82
2022/09/30 04:11:15;;;;;;;77.38;14.00;;;6.00;99.90;;;;;;4833052;29;20186;-82
2022/09/30 04:13:41;;;;;;;54.28;10.75;;;6.10;99.90;;;;;;4850882;29;20052;-82
2022/09/30 04:16:07;;;;;;;29.25;8.57;;;6.00;99.90;;;;;;4861564;29;20037;-82
2022/09/30 04:18:37;;;;;;;68.13;11.85;;;6.20;99.90;;;;;;4849745;29;20051;-82
2022/09/30 04:21:07;;;;;;;7.90;6.82;;;6.10;99.90;;;;;;4864789;29;20045;-82
2022/09/30 04:23:38;;;;;;;8.95;7.22;;;6.00;99.90;;;;;;4846057;29;20071;-82
2022/09/30 04:26:05;;;;;;;11.43;6.45;;;6.00;99.90;;;;;;4830259;29;20051;-81
2022/09/30 04:28:32;;;;;;;7.72;6.93;;;6.00;99.90;;;;;;4843026;29;20069;-82
2022/09/30 04:30:59;;;;;;;10.77;7.72;;;6.10;99.90;;;;;;4860268;29;20655;-82
2022/09/30 04:33:25;;;;;;;6.65;5.95;;;6.00;99.90;;;;;;4861065;29;20033;-82
2022/09/30 04:35:55;;;;;;;8.77;7.18;;;6.00;99.90;;;;;;4852491;29;20410;-82
2022/09/30 04:38:23;;;;;;;7.68;6.88;;;6.00;99.90;;;;;;4849350;29;20164;-82
2022/09/30 04:40:49;;;;;;;249.98;19.60;;;6.00;99.90;;;;;;4849755;29;20044;-82
2022/09/30 04:43:17;;;;;;;312.08;23.75;;;5.90;99.90;;;;;;4867251;29;20040;-82
2022/09/30 04:45:44;;;;;;;25.70;8.65;;;5.90;99.90;;;;;;4864951;29;20585;-81
2022/09/30 04:48:10;;;;;;;56.80;12.07;;;6.10;99.90;;;;;;4853873;29;20397;-82
2022/09/30 04:50:36;;;;;;;18.60;8.07;;;6.00;99.90;;;;;;4848467;29;20033;-82
2022/09/30 04:53:02;;;;;;;8.68;7.18;;;5.80;99.90;;;;;;4869501;29;20109;-82
2022/09/30 04:55:28;;;;;;;34.22;8.30;;;5.90;99.90;;;;;;4834014;29;20037;-82
2022/09/30 04:57:54;;;;;;;7.50;6.70;;;5.90;99.90;;;;;;4846153;29;20463;-82
2022/09/30 05:00:20;;;;;;;9.77;8.60;;;5.90;99.90;;;;;;4846791;29;20066;-82
2022/09/30 05:02:46;;;;;;;9.43;7.75;;;5.90;99.90;;;;;;4845903;29;20053;-82
2022/09/30 05:05:12;;;;;;;11.23;8.60;;;5.80;99.90;;;;;;4845889;29;20048;-82
2022/09/30 05:07:37;;;;;;;10.07;8.40;;;5.80;99.90;;;;;;4835260;29;20608;-82
2022/09/30 05:10:04;;;;;;;11.63;9.32;;;5.80;99.90;;;;;;4833320;29;20508;-82
2022/09/30 05:12:30;;;;;;;17.48;9.65;;;5.90;99.90;;;;;;4849388;29;20124;-82
2022/09/30 05:14:56;;;;;;;10.57;8.48;;;5.80;99.90;;;;;;4864261;29;20056;-82
2022/09/30 05:17:22;;;;;;;11.18;9.10;;;5.80;99.90;;;;;;4850725;29;20045;-82
2022/09/30 05:19:47;;;;;;;11.70;9.32;;;5.90;99.90;;;;;;4845572;29;20253;-81
2022/09/30 05:22:13;;;;;;;9.68;8.02;;;5.90;99.90;;;;;;4831780;29;20274;-82
2022/09/30 05:24:39;;;;;;;11.30;8.27;;;5.80;99.90;;;;;;4832183;29;20542;-81
2022/09/30 05:27:05;;;;;;;9.88;8.30;;;5.90;99.90;;;;;;4845737;29;20065;-82
2022/09/30 05:29:31;;;;;;;9.00;7.63;;;5.90;99.90;;;;;;4816289;29;20604;-82
2022/09/30 05:31:57;;;;;;;720.35;44.65;;;5.80;99.90;;;;;;4848778;29;20200;-82
2022/09/30 05:34:22;;;;;;;60.17;11.82;;;5.80;99.90;;;;;;4822171;29;20069;-82
2022/09/30 05:36:48;;;;;;;100.78;9.68;;;6.00;99.90;;;;;;4863386;29;20262;-82
2022/09/30 05:39:14;;;;;;;89.57;8.60;;;5.90;99.90;;;;;;4834228;29;20057;-82
2022/09/30 05:41:39;;;;;;;10.52;6.30;;;5.80;99.90;;;;;;4817549;29;20174;-82
2022/09/30 05:44:07;;;;;;;6.30;5.70;;;5.70;99.90;;;;;;4834165;29;20194;-82
2022/09/30 05:46:33;;;;;;;9.32;7.10;;;5.70;99.90;;;;;;4832873;29;20045;-82
2022/09/30 05:48:59;;;;;;;8.48;6.97;;;5.70;99.90;;;;;;4845339;29;20495;-82
2022/09/30 05:51:25;;;;;;;9.18;7.05;;;5.80;99.90;;;;;;4844673;29;20044;-81
2022/09/30 05:53:54;;;;;;;9.63;7.05;;;6.00;99.90;;;;;;4832139;29;20477;-82
2022/09/30 05:56:20;;;;;;;10.35;8.05;;;5.90;99.90;;;;;;4847139;29;20540;-82
2022/09/30 05:58:46;;;;;;;9.07;7.00;;;6.00;99.90;;;;;;4842899;29;20110;-82
2022/09/30 06:01:14;;;;;;;7.20;5.93;;;6.00;99.90;;;;;;4836778;29;20470;-82
2022/09/30 06:03:41;;;;;;;81.72;10.30;;;5.90;99.90;;;;;;4844299;29;20057;-82
2022/09/30 06:06:07;;;;;;;259.27;17.23;;;5.90;99.90;;;;;;4822076;29;20542;-82
2022/09/30 06:08:33;;;;;;;8.52;7.15;;;6.00;99.90;;;;;;4830102;29;20405;-82
2022/09/30 06:10:58;;;;;;;77.25;9.88;;;6.10;99.90;;;;;;4817200;29;20038;-82
2022/09/30 06:13:27;;;;;;;9.20;6.72;;;6.10;99.90;;;;;;4830985;29;20494;-81
2022/09/30 06:15:58;;;;;;;9.00;6.82;;;6.10;99.90;;;;;;4843610;29;20057;-82
2022/09/30 06:18:26;;;;;;;9.25;6.00;;;6.10;99.90;;;;;;4844570;29;20049;-82
2022/09/30 06:20:56;;;;;;;12.43;7.18;;;6.20;99.90;;;;;;4845248;29;20605;-82
2022/09/30 06:23:23;;;;;;;14.05;7.70;;;6.20;99.90;;;;;;4830306;29;20141;-82
2022/09/30 06:25:52;;;;;;;8.55;6.80;;;6.30;99.90;;;;;;4827703;29;20109;-82
2022/09/30 06:28:18;;;;;;;10.73;8.85;;;6.30;99.90;;;;;;4845426;29;20124;-82
2022/09/30 06:30:45;;;;;;;9.20;7.72;;;6.50;99.90;;;;;;4844205;29;20050;-82
2022/09/30 06:33:12;;;;;;;11.98;8.57;;;6.60;99.90;;;;;;4846347;29;20056;-82
2022/09/30 06:35:40;;;;;;;16.02;9.00;;;6.70;99.90;;;;;;4846331;29;20052;-82
2022/09/30 06:38:07;;;;;;;15.13;9.95;;;6.80;99.90;;;;;;4848312;29;20350;-81
2022/09/30 06:40:33;;;;;;;17.77;10.10;;;6.90;99.90;;;;;;4829087;29;20033;-82
2022/09/30 06:42:59;;;;;;;13.20;9.90;;;7.00;99.90;;;;;;4828697;29;20068;-82
2022/09/30 06:45:26;;;;;;;15.73;10.48;;;7.10;99.90;;;;;;4844654;29;20112;-82
2022/09/30 06:47:56;;;;;;;14.25;10.73;;;7.10;99.90;;;;;;4826610;29;20259;-82
2022/09/30 06:50:25;;;;;;;14.40;10.35;;;7.30;99.90;;;;;;4828229;29;20118;-82
2022/09/30 06:52:56;;;;;;;76.65;16.35;;;7.40;99.90;;;;;;4829699;29;20117;-82
2022/09/30 06:55:23;;;;;;;26.98;11.95;;;7.30;99.90;;;;;;4846781;29;20057;-82
2022/09/30 06:57:48;;;;;;;13.90;11.05;;;7.40;99.90;;;;;;4831985;29;20255;-82
2022/09/30 07:00:15;;;;;;;15.45;11.38;;;7.40;99.90;;;;;;4843994;29;20042;-82
2022/09/30 07:02:41;;;;;;;16.92;11.55;;;7.60;99.90;;;;;;4849646;29;20572;-82
2022/09/30 07:05:08;;;;;;;19.42;12.00;;;7.60;99.90;;;;;;4848872;29;20045;-82
2022/09/30 07:07:34;;;;;;;18.05;12.65;;;7.80;99.90;;;;;;4849984;29;20395;-82
2022/09/30 07:10:00;;;;;;;22.90;13.25;;;7.70;99.90;;;;;;4837143;29;20049;-82
2022/09/30 07:12:26;;;;;;;19.13;13.48;;;7.90;99.90;;;;;;4852089;29;20060;-82
2022/09/30 07:14:52;;;;;;;22.67;13.70;;;7.90;99.90;;;;;;4848591;29;20061;-82
2022/09/30 07:17:18;;;;;;;21.33;14.93;;;8.10;99.90;;;;;;4848840;29;20041;-82
2022/09/30 07:19:44;;;;;;;20.08;13.35;;;8.20;99.90;;;;;;4849500;29;20516;-82
2022/09/30 07:24:56;;;;;;;21.73;14.18;;;8.30;99.90;;;;;;4837057;29;20548;-82
2022/09/30 07:27:22;;;;;;;23.70;15.43;;;8.50;99.90;;;;;;4837840;29;20076;-82
2022/09/30 07:29:48;;;;;;;21.33;15.30;;;8.60;99.90;;;;;;4829994;29;20042;-82
2022/09/30 07:32:18;;;;;;;25.10;15.98;;;8.60;99.90;;;;;;4842045;29;20474;-82
2022/09/30 07:34:44;;;;;;;24.42;15.65;;;8.70;99.90;;;;;;4830069;29;20049;-82
2022/09/30 07:37:13;;;;;;;29.23;16.30;;;8.80;99.90;;;;;;4829952;29;20041;-82
2022/09/30 07:39:41;;;;;;;22.55;14.77;;;9.00;99.90;;;;;;4844809;29;20128;-82
2022/09/30 07:42:07;;;;;;;25.45;15.82;;;9.00;99.90;;;;;;4829160;29;20353;-82
2022/09/30 07:44:33;;;;;;;25.83;15.70;;;9.10;99.90;;;;;;4831282;29;20339;-82
2022/09/30 07:47:02;;;;;;;27.15;16.88;;;9.30;99.90;;;;;;4836137;29;20093;-82
2022/09/30 07:49:33;;;;;;;20.98;14.35;;;9.40;99.90;;;;;;4831687;29;20033;-81
2022/09/30 07:51:59;;;;;;;24.40;15.40;;;9.50;99.90;;;;;;4805200;29;1182825;-82
2022/09/30 07:54:28;;;;;;;26.88;16.63;;;9.70;99.90;;;;;;4845533;29;20484;-82
2022/09/30 07:56:54;;;;;;;25.75;16.33;;;9.90;99.90;;;;;;4842294;29;20038;-82
2022/09/30 07:59:21;;;;;;;27.20;16.55;;;10.00;99.90;;;;;;4830753;29;20045;-82
2022/09/30 08:01:47;;;;;;;28.48;17.92;;;10.10;99.90;;;;;;4830469;29;20561;-82
2022/09/30 08:04:14;;;;;;;28.52;16.73;;;10.20;99.90;;;;;;4848864;29;20042;-82
2022/09/30 08:06:44;;;;;;;30.42;17.75;;;10.30;99.90;;;;;;4843841;29;20653;-82
2022/09/30 08:09:11;;;;;;;26.90;17.27;;;10.40;99.90;;;;;;4851363;29;20053;-82
2022/09/30 08:11:38;;;;;;;28.50;18.25;;;10.70;99.90;;;;;;4834530;29;20520;-82
2022/09/30 08:14:04;;;;;;;28.58;17.60;;;10.70;99.90;;;;;;4834696;29;20037;-82
2022/09/30 08:16:30;;;;;;;24.58;16.85;;;10.80;99.90;;;;;;4827295;29;20096;-82
2022/09/30 08:18:59;;;;;;;23.25;16.17;;;11.00;99.90;;;;;;4842683;29;20045;-82
2022/09/30 08:21:26;;;;;;;20.63;15.25;;;11.00;99.90;;;;;;4831154;29;20045;-82
2022/09/30 08:23:51;;;;;;;15.65;12.68;;;11.10;99.90;;;;;;4832999;29;20128;-82
2022/09/30 08:26:17;;;;;;;17.20;12.77;;;11.20;99.90;;;;;;4835348;29;20120;-82
2022/09/30 08:28:47;;;;;;;23.15;13.73;;;11.30;99.90;;;;;;4847309;29;20502;-82
2022/09/30 08:31:12;;;;;;;18.75;13.25;;;11.60;99.90;;;;;;4817262;29;20097;-82
2022/09/30 08:33:39;;;;;;;20.25;13.77;;;11.70;99.90;;;;;;4838398;29;20314;-82
2022/09/30 08:36:08;;;;;;;20.60;14.15;;;11.90;99.90;;;;;;4853889;29;20056;-82
2022/09/30 08:38:34;;;;;;;21.00;13.38;;;11.90;99.90;;;;;;4835271;29;20048;-82
2022/09/30 08:41:12;;;;;;;22.23;14.00;;;12.20;99.90;;;;;;4830785;29;20052;-82
2022/09/30 08:44:12;;;;;;;21.50;14.48;;;12.40;99.90;;;;;;4855531;29;20490;-82
2022/09/30 08:47:01;;;;;;;21.35;13.43;;;12.50;99.90;;;;;;4830925;29;20082;-82
2022/09/30 08:50:03;;;;;;;22.95;13.63;;;12.60;99.90;;;;;;4832714;29;20498;-82
2022/09/30 08:52:37;;;;;;;20.58;13.52;;;12.80;99.90;;;;;;4864209;29;20069;-82
2022/09/30 08:55:04;;;;;;;20.10;13.02;;;12.80;99.90;;;;;;4831636;29;20045;-82
2022/09/30 08:57:42;;;;;;;18.80;12.68;;;12.80;99.90;;;;;;4845576;29;20120;-82
2022/09/30 09:00:12;;;;;;;16.00;11.02;;;12.80;99.90;;;;;;4843836;29;20541;-82
2022/09/30 09:02:59;;;;;;;17.63;11.35;;;12.70;99.90;;;;;;4831300;29;20082;-82
2022/09/30 09:05:46;;;;;;;18.23;12.02;;;12.50;99.90;;;;;;4833150;29;20029;-82
2022/09/30 09:08:48;;;;;;;16.52;11.35;;;12.70;99.90;;;;;;4840092;29;20125;-82
2022/09/30 09:12:01;;;;;;;16.70;11.82;;;12.80;99.90;;;;;;4850120;29;20037;-82
2022/09/30 09:14:49;;;;;;;15.55;10.85;;;13.20;99.90;;;;;;4832303;29;20081;-82
2022/09/30 09:17:41;;;;;;;15.02;10.45;;;13.10;99.90;;;;;;4828993;29;20057;-82
2022/09/30 09:20:16;;;;;;;15.05;11.13;;;13.00;99.90;;;;;;4832308;29;20132;-83
2022/09/30 09:22:44;;;;;;;14.30;10.57;;;13.10;99.90;;;;;;4853585;29;20156;-82
2022/09/30 09:25:26;;;;;;;11.73;8.95;;;13.20;99.90;;;;;;4830489;29;20069;-82
2022/09/30 09:28:32;;;;;;;12.45;9.45;;;13.00;99.90;;;;;;4827832;29;20084;-82
2022/09/30 09:30:59;;;;;;;12.05;8.75;;;12.90;99.90;;;;;;4821537;29;20053;-82
2022/09/30 09:33:29;;;;;;;10.23;8.20;;;13.10;99.90;;;;;;4825756;29;20073;-82
2022/09/30 09:36:11;;;;;;;10.85;7.90;;;13.10;99.90;;;;;;4834299;29;20052;-82
2022/09/30 09:38:48;;;;;;;10.45;7.10;;;13.30;99.90;;;;;;4834668;29;20041;-82
2022/09/30 09:41:49;;;;;;;7.15;6.38;;;13.20;99.90;;;;;;4814793;29;20041;-82
2022/09/30 09:44:36;;;;;;;8.35;6.80;;;13.30;99.90;;;;;;4815970;29;20049;-82
2022/09/30 09:47:14;;;;;;;7.32;6.43;;;13.40;99.90;;;;;;4849046;29;20438;-82
2022/09/30 09:50:04;;;;;;;8.77;6.18;;;13.50;99.90;;;;;;4830623;29;20114;-82
2022/09/30 09:52:42;;;;;;;8.13;6.40;;;13.70;99.90;;;;;;4830272;29;20132;-82
2022/09/30 09:55:09;;;;;;;9.48;6.75;;;13.80;99.90;;;;;;4860805;29;20093;-82
2022/09/30 09:57:35;;;;;;;8.48;6.50;;;13.60;99.90;;;;;;4850848;29;20041;-82
2022/09/30 10:03:11;;;;;;;8.23;6.82;;;13.80;99.90;;;;;;4829390;29;20060;-82
2022/09/30 10:05:40;;;;;;;9.43;6.85;;;14.00;99.90;;;;;;4829066;29;20377;-81
2022/09/30 10:08:20;;;;;;;10.88;7.75;;;14.10;99.90;;;;;;4847216;29;20372;-82
2022/09/30 10:10:53;;;;;;;9.48;7.47;;;14.10;99.90;;;;;;4844092;29;20128;-82
2022/09/30 10:13:24;;;;;;;12.25;8.23;;;14.30;99.90;;;;;;4830625;29;20148;-82
2022/09/30 10:15:53;;;;;;;10.77;8.45;;;14.50;99.90;;;;;;4831031;29;20073;-82
2022/09/30 10:18:34;;;;;;;10.57;9.18;;;14.50;99.90;;;;;;4829870;29;20057;-82
2022/09/30 10:21:21;;;;;;;11.98;7.82;;;14.70;99.90;;;;;;4859314;29;20273;-82
2022/09/30 10:23:47;;;;;;;7.30;6.40;;;14.70;99.90;;;;;;4815698;29;20089;-82
2022/09/30 10:26:13;;;;;;;8.13;5.20;;;14.80;99.90;;;;;;4838012;29;20053;-82
2022/09/30 10:29:00;;;;;;;6.93;5.38;;;15.00;99.90;;;;;;4862385;29;20042;-82
2022/09/30 10:31:34;;;;;;;7.63;5.32;;;15.00;99.90;;;;;;4843498;29;20042;-82
2022/09/30 10:34:30;;;;;;;6.30;4.78;;;15.00;99.90;;;;;;4817720;29;20053;-83
2022/09/30 10:36:59;;;;;;;5.20;4.00;;;15.10;99.90;;;;;;4836487;29;20045;-83
2022/09/30 10:39:28;;;;;;;5.18;4.07;;;15.20;99.90;;;;;;4830769;29;20485;-82
2022/09/30 10:42:06;;;;;;;6.65;4.20;;;15.30;99.90;;;;;;4859330;29;20124;-82
2022/09/30 10:44:40;;;;;;;4.35;3.95;;;15.40;99.90;;;;;;4847640;29;20498;-82
2022/09/30 10:47:06;;;;;;;4.97;3.42;;;15.60;99.90;;;;;;4847181;29;20041;-82
2022/09/30 10:49:52;;;;;;;4.65;3.50;;;15.50;99.90;;;;;;4812942;29;20049;-82
2022/09/30 10:52:33;;;;;;;4.40;3.38;;;15.70;99.90;;;;;;4843488;29;20084;-82
2022/09/30 10:55:04;;;;;;;4.93;3.30;;;15.80;99.90;;;;;;4842797;29;20348;-83
2022/09/30 10:57:37;;;;;;;4.90;3.85;;;15.80;99.90;;;;;;4812454;29;20065;-83
2022/09/30 11:00:09;;;;;;;5.40;3.63;;;16.00;1.00;;;;;;4847637;29;20049;-83
2022/09/30 11:03:04;;;;;;;4.45;3.53;;;15.90;99.90;;;;;;4860652;29;20740;-82
2022/09/30 11:05:37;;;;;;;7.87;3.67;;;16.00;99.90;;;;;;4831885;29;20469;-83
2022/09/30 11:08:11;;;;;;;5.53;3.45;;;16.10;99.90;;;;;;4822537;29;20617;-82
2022/09/30 11:11:00;;;;;;;5.32;3.20;;;15.90;99.90;;;;;;4827507;29;20369;-83
2022/09/30 11:13:37;;;;;;;13.30;3.20;;;16.00;99.90;;;;;;4828593;29;20041;-82
2022/09/30 11:16:31;;;;;;;3.22;2.58;;;16.20;1.00;;;;;;4845634;29;20053;-82
2022/09/30 11:19:10;;;;;;;4.00;3.60;;;16.40;99.90;;;;;;4824237;29;20604;-83
2022/09/30 11:21:52;;;;;;;3.63;3.28;;;16.60;1.00;;;;;;4845016;29;20549;-82
2022/09/30 11:24:33;;;;;;;4.15;3.28;;;16.70;99.90;;;;;;4830815;29;20733;-83
2022/09/30 11:27:23;;;;;;;4.25;3.28;;;16.60;56.10;;;;;;4845301;29;20046;-82
2022/09/30 11:29:58;;;;;;;5.82;3.63;;;17.00;99.90;;;;;;4842506;29;20498;-83
2022/09/30 11:32:41;;;;;;;4.80;3.55;;;17.00;1.00;;;;;;4821503;29;20530;-83
2022/09/30 11:35:26;;;;;;;3.63;3.17;;;16.60;99.90;;;;;;4846707;29;20270;-82
2022/09/30 11:38:00;;;;;;;4.82;3.25;;;16.50;1.00;;;;;;4829120;29;20488;-82
2022/09/30 11:40:41;;;;;;;9.70;4.13;;;16.40;99.90;;;;;;4858401;29;20049;-82
2022/09/30 11:43:36;;;;;;;8.02;3.70;;;16.50;39.70;;;;;;4843285;29;20121;-83
2022/09/30 11:46:35;;;;;;;3.53;3.22;;;16.80;99.90;;;;;;4829583;29;20042;-83
2022/09/30 11:49:24;;;;;;;7.20;3.15;;;17.00;1.00;;;;;;4843474;29;20073;-83
2022/09/30 11:52:08;;;;;;;5.38;3.17;;;17.20;64.80;;;;;;4831115;29;20053;-82
2022/09/30 11:54:45;;;;;;;3.00;2.70;;;17.30;99.90;;;;;;4828861;29;20041;-83
2022/09/30 11:57:30;;;;;;;3.15;2.40;;;16.90;99.90;;;;;;4843324;29;20871;-83
2022/09/30 12:00:01;;;;;;;5.82;3.28;;;16.70;99.90;;;;;;4848715;29;20389;-83
2022/09/30 12:02:36;;;;;;;3.00;2.53;;;16.40;99.90;;;;;;4826889;29;20041;-83
2022/09/30 12:05:40;;;;;;;7.07;2.50;;;16.90;99.90;;;;;;4828601;29;20806;-83
2022/09/30 12:08:29;;;;;;;5.28;2.42;;;16.70;99.90;;;;;;4819869;29;20641;-83
2022/09/30 12:11:06;;;;;;;3.03;2.25;;;17.30;99.90;;;;;;4816834;29;20061;-81
2022/09/30 12:13:39;;;;;;;2.38;1.67;;;17.30;99.90;;;;;;4842157;29;20638;-82
2022/09/30 12:16:13;;;;;;;1.85;1.42;;;17.80;99.90;;;;;;4829225;29;20045;-82
2022/09/30 12:18:45;;;;;;;3.08;1.40;;;17.60;1.00;;;;;;4857057;29;20140;-83
2022/09/30 12:21:19;;;;;;;1.67;1.38;;;18.30;99.90;;;;;;4824836;29;20548;-83
2022/09/30 12:24:02;;;;;;;1.90;1.48;;;18.70;1.00;;;;;;4826890;29;20045;-83
2022/09/30 12:26:29;;;;;;;1.67;1.40;;;18.70;1.00;;;;;;4856537;29;20077;-83
2022/09/30 12:32:08;;;;;;;3.60;1.25;;;19.20;1.00;;;;;;4826339;29;20506;-83
2022/09/30 12:35:05;;;;;;;1.42;1.20;;;19.40;1.00;;;;;;4844250;29;20121;-82
2022/09/30 12:38:05;;;;;;;1.92;1.20;;;19.20;99.90;;;;;;4832099;29;20665;-83
2022/09/30 12:40:34;;;;;;;1.67;1.35;;;19.50;40.90;;;;;;4859772;29;20041;-83
2022/09/30 12:43:22;;;;;;;1.60;1.30;;;19.00;1.00;;;;;;4827787;29;20046;-83
2022/09/30 12:46:13;;;;;;;1.80;1.35;;;19.20;99.90;;;;;;4844876;29;20185;-83
2022/09/30 12:49:00;;;;;;;2.13;1.48;;;18.60;99.90;;;;;;4831014;29;20053;-83
2022/09/30 12:51:41;;;;;;;2.08;1.40;;;18.80;99.90;;;;;;4842110;29;20141;-83
2022/09/30 12:54:16;;;;;;;2.83;1.67;;;19.30;62.00;;;;;;4845159;29;20060;-83
2022/09/30 12:56:52;;;;;;;1.60;1.50;;;19.30;1.00;;;;;;4864711;29;20793;-82
2022/09/30 12:59:26;;;;;;;2.17;1.88;;;18.90;99.90;;;;;;4847317;29;20044;-83
2022/09/30 13:01:53;;;;;;;3.25;2.33;;;18.30;1.00;;;;;;4845358;29;20068;-83
2022/09/30 13:04:30;;;;;;;3.17;2.22;;;18.10;1.00;;;;;;4861296;29;20572;-83
2022/09/30 13:06:56;;;;;;;4.43;2.70;;;17.80;99.90;;;;;;4847063;29;20045;-82
2022/09/30 13:09:29;;;;;;;3.40;2.80;;;17.70;99.90;;;;;;4850753;29;20113;-82
2022/09/30 13:11:55;;;;;;;6.00;3.47;;;17.50;99.90;;;;;;4866154;29;20394;-83
2022/09/30 13:14:34;;;;;;;5.72;3.00;;;17.20;1.00;;;;;;4854314;29;20045;-83
2022/09/30 13:17:04;;;;;;;4.60;3.30;;;17.00;99.90;;;;;;4832031;29;20514;-83
2022/09/30 13:19:50;;;;;;;4.75;3.60;;;16.90;99.90;;;;;;4836195;29;20045;-83
2022/09/30 13:22:19;;;;;;;4.95;3.88;;;17.00;99.90;;;;;;4852215;29;20057;-83
2022/09/30 13:27:41;;;;;;;3.80;3.20;;;17.30;96.00;;;;;;4870784;29;20045;-83
2022/09/30 13:30:15;;;;;;;4.90;4.13;;;17.30;99.90;;;;;;4847289;29;20238;-82
2022/09/30 13:32:56;;;;;;;4.63;4.07;;;17.20;1.00;;;;;;4850371;29;20033;-83
2022/09/30 13:35:38;;;;;;;4.03;3.60;;;17.30;99.90;;;;;;4850912;29;20620;-83